Data for 10/12/2014

Time Sea-Level Adjusted Pressure Absolute Pressure Temperature Relative Humidity Dew Point   
(mb) (inHg) (mb) (inHg) (C) (F) (%) (C) (F)
00:05 1014 29.94 843 24.89 6.8 44.2 83 4.1 39.3
00:10 1014 29.94 843 24.89 6.7 44 83 4 39.3
00:15 1014 29.94 843 24.89 6.6 43.9 81 3.6 38.5
00:20 1014 29.94 843 24.89 6.7 44.1 80 3.5 38.3
00:25 1014 29.94 843 24.89 6.7 44 82 3.8 38.8
00:30 1014 29.94 843 24.89 6.6 43.9 81 3.7 38.6
00:35 1014 29.94 843 24.89 6.6 43.9 80 3.5 38.3
00:40 1014 29.94 843 24.89 6.6 43.9 79 3.3 37.9
00:45 1014 29.94 843 24.89 6.6 43.8 80 3.3 38
00:50 1014 29.94 843 24.89 6.5 43.7 80 3.3 37.9
00:55 1014 29.94 843 24.89 6.4 43.6 80 3.2 37.7
01:00 1014 29.94 843 24.89 6.4 43.6 78 2.9 37.3
01:05 1014 29.94 843 24.89 6.5 43.7 76 2.6 36.8
01:10 1014 29.94 843 24.89 6.5 43.8 75 2.4 36.3
01:15 1014 29.94 844 24.92 6.5 43.8 76 2.5 36.6
01:20 1014 29.94 844 24.92 6.5 43.7 76 2.6 36.8
01:25 1014 29.94 844 24.92 6.4 43.6 78 2.9 37.2
01:30 1014 29.94 844 24.92 6.3 43.4 78 2.8 37
01:35 1014 29.94 844 24.92 6.3 43.4 76 2.4 36.3
01:40 1014 29.94 844 24.92 6.3 43.4 75 2.3 36.1
01:45 1015 29.97 844 24.92 6.4 43.5 74 2.1 35.8
01:50 1015 29.97 844 24.92 6.4 43.6 74 2.2 36
01:55 1015 29.97 844 24.92 6.3 43.3 75 2.2 35.9
02:00 1015 29.97 844 24.92 6.2 43.1 74 1.9 35.5
02:05 1015 29.97 844 24.92 6.2 43.2 72 1.6 34.9
02:10 1015 29.97 844 24.92 6.3 43.3 73 1.7 35.1
02:15 1015 29.97 844 24.92 6.2 43.2 74 1.9 35.4
02:20 1015 29.97 844 24.92 6 42.7 76 2 35.6
02:25 1015 29.97 844 24.92 5.8 42.4 75 1.8 35.2
02:30 1015 29.97 844 24.92 5.8 42.4 75 1.7 35
02:35 1015 29.97 844 24.92 5.8 42.4 75 1.7 35.1
02:40 1015 29.97 844 24.92 5.7 42.3 76 1.9 35.4
02:45 1015 29.97 844 24.92 5.7 42.2 76 1.8 35.2
02:50 1015 29.97 844 24.92 5.7 42.2 77 2 35.6
02:55 1015 29.97 844 24.92 5.7 42.2 75 1.6 35
03:00 1015 29.97 844 24.92 5.8 42.5 75 1.7 35.1
03:05 1015 29.97 844 24.92 5.6 42 78 2 35.6
03:10 1015 29.97 844 24.92 5.4 41.7 78 1.9 35.4
03:15 1015 29.97 844 24.92 5.4 41.7 77 1.8 35.2
03:20 1015 29.97 844 24.92 5.5 42 77 1.8 35.2
03:25 1015 29.97 845 24.95 5.6 42.1 77 1.9 35.3
03:30 1015 29.97 845 24.95 5.6 42 77 1.9 35.4
03:35 1016 30 845 24.95 5.6 42 79 2.2 36
03:40 1016 30 845 24.95 5.6 42 81 2.5 36.5
03:45 1016 30 845 24.95 5.7 42.2 79 2.3 36.2
03:50 1016 30 845 24.95 5.8 42.4 76 1.9 35.4
03:55 1016 30 845 24.95 5.9 42.6 76 2 35.7
04:00 1016 30 845 24.95 5.8 42.5 76 1.9 35.4
04:05 1016 30 845 24.95 5.7 42.3 77 2 35.7
04:10 1016 30 845 24.95 5.5 41.9 79 2.2 36
04:15 1016 30 845 24.95 5.4 41.7 80 2.3 36.1
04:20 1016 30 845 24.95 5.2 41.4 82 2.4 36.4
04:25 1016 30 845 24.95 5.1 41.3 82 2.3 36.2
04:30 1016 30 846 24.98 5.2 41.3 82 2.4 36.3
04:35 1016 30 846 24.98 5.1 41.3 83 2.5 36.6
04:40 1017 30.03 846 24.98 5.1 41.2 84 2.6 36.7
04:45 1017 30.03 846 24.98 5 41 86 2.8 37.1
04:50 1017 30.03 846 24.98 4.9 40.8 87 2.9 37.2
04:55 1017 30.03 846 24.98 4.8 40.7 88 3 37.4
05:00 1017 30.03 846 24.98 4.8 40.7 88 2.9 37.3
05:05 1017 30.03 846 24.98 4.8 40.7 87 2.8 37.1
05:10 1017 30.03 846 24.98 4.9 40.8 87 2.9 37.2
05:15 1017 30.03 846 24.98 4.9 40.8 87 2.8 37.1
05:20 1017 30.03 846 24.98 4.9 40.8 87 2.9 37.2
05:25 1017 30.03 846 24.98 4.9 40.9 86 2.8 37.1
05:30 1017 30.03 846 24.98 5 41 87 3 37.5
05:35 1017 30.03 846 24.98 5 41 88 3.2 37.8
05:40 1017 30.03 846 24.98 4.9 40.8 89 3.2 37.7
05:45 1017 30.03 846 24.98 4.9 40.8 89 3.2 37.8
05:50 1017 30.03 847 25.01 4.8 40.7 89 3.1 37.6
05:55 1017 30.03 847 25.01 4.8 40.7 89 3.1 37.7
06:00 1018 30.06 847 25.01 4.9 40.7 88 3 37.5
06:05 1018 30.06 847 25.01 4.9 40.7 87 2.9 37.2
06:10 1018 30.06 847 25.01 4.8 40.6 85 2.5 36.5
06:15 1018 30.06 847 25.01 4.7 40.5 85 2.5 36.4
06:20 1018 30.06 847 25.01 4.6 40.3 86 2.5 36.5
06:25 1018 30.06 847 25.01 4.6 40.2 86 2.5 36.5
06:30 1018 30.06 847 25.01 4.5 40.1 87 2.5 36.6
06:35 1018 30.06 847 25.01 4.5 40.1 87 2.5 36.5
06:40 1018 30.06 847 25.01 4.5 40 87 2.5 36.5
06:45 1018 30.06 847 25.01 4.4 40 88 2.6 36.7
06:50 1018 30.06 847 25.01 4.4 39.9 87 2.5 36.5
06:55 1018 30.06 848 25.04 4.4 40 88 2.6 36.6
07:00 1018 30.06 848 25.04 4.4 39.9 88 2.6 36.6
07:05 1019 30.09 848 25.04 4.4 39.8 86 2.2 35.9
07:10 1019 30.09 848 25.04 4.3 39.7 86 2.2 35.9
07:15 1019 30.09 848 25.04 4.2 39.6 87 2.2 36
07:20 1019 30.09 848 25.04 4.2 39.5 85 1.9 35.4
07:25 1019 30.09 848 25.04 4.1 39.5 86 1.9 35.5
07:30 1019 30.09 848 25.04 3.9 39.1 86 1.8 35.3
07:35 1019 30.09 848 25.04 3.8 38.8 88 1.9 35.4
07:40 1019 30.09 848 25.04 3.7 38.7 88 1.9 35.5
07:45 1019 30.09 848 25.04 3.8 38.8 89 2.1 35.8
07:50 1019 30.09 848 25.04 3.8 38.9 89 2.1 35.8
07:55 1019 30.09 848 25.04 3.8 38.8 90 2.2 36
08:00 1019 30.09 848 25.04 3.9 38.9 90 2.4 36.3
08:05 1019 30.09 848 25.04 3.8 38.8 90 2.2 36
08:10 1019 30.09 848 25.04 3.7 38.7 90 2.3 36.1
08:15 1019 30.09 849 25.07 3.8 38.8 90 2.3 36.2
08:20 1019 30.09 849 25.07 3.7 38.7 90 2.2 36
08:25 1019 30.09 849 25.07 3.7 38.6 89 2.1 35.8
08:30 1020 30.12 849 25.07 3.7 38.6 88 1.8 35.3
08:35 1020 30.12 849 25.07 3.8 38.9 88 2 35.5
08:40 1020 30.12 849 25.07 4.3 39.7 84 1.7 35.1
08:45 1020 30.12 849 25.07 4.5 40.1 83 1.9 35.4
08:50 1020 30.12 849 25.07 4.5 40 83 1.9 35.4
08:55 1020 30.12 849 25.07 4.7 40.4 83 2.1 35.7
09:00 1020 30.12 849 25.07 4.8 40.7 83 2.2 36
09:05 1020 30.12 849 25.07 4.9 40.9 82 2.2 35.9
09:10 1020 30.12 849 25.07 5 41 79 1.7 35.1
09:15 1020 30.12 849 25.07 4.9 40.8 81 1.9 35.5
09:20 1020 30.12 849 25.07 4.8 40.7 82 2 35.7
09:25 1020 30.12 849 25.07 4.8 40.6 84 2.4 36.3
09:30 1020 30.12 850 25.1 4.9 40.8 78 1.4 34.5
09:35 1020 30.12 850 25.1 4.9 40.8 81 1.9 35.5
09:40 1020 30.12 850 25.1 4.8 40.7 81 1.8 35.2
09:45 1020 30.12 850 25.1 4.9 40.8 78 1.4 34.5
09:50 1021 30.15 850 25.1 5 41 79 1.6 34.9
09:55 1021 30.15 850 25.1 5 41 79 1.7 35
10:00 1021 30.15 850 25.1 5.2 41.3 78 1.7 35
10:05 1021 30.15 850 25.1 5.5 41.9 77 1.7 35.1
10:10 1021 30.15 850 25.1 5.6 42.1 75 1.5 34.7
10:15 1021 30.15 850 25.1 5.7 42.3 77 1.9 35.4
10:20 1021 30.15 850 25.1 5.9 42.6 75 1.8 35.2
10:25 1021 30.15 850 25.1 5.9 42.7 75 1.9 35.3
10:30 1021 30.15 850 25.1 6.1 43 74 1.8 35.3
10:35 1021 30.15 850 25.1 6.1 43 73 1.7 35.1
10:40 1021 30.15 850 25.1 6.1 43 71 1.4 34.4
10:45 1021 30.15 850 25.1 6.2 43.2 73 1.7 35.1
10:50 1021 30.15 850 25.1 6.1 43 73 1.7 35
10:55 1021 30.15 850 25.1 6.2 43.2 71 1.3 34.3
11:00 1021 30.15 850 25.1 6.2 43.2 72 1.5 34.7
11:05 1021 30.15 850 25.1 6.1 42.9 73 1.5 34.7
11:10 1021 30.15 850 25.1 6.1 43 72 1.4 34.6
11:15 1021 30.15 850 25.1 6.3 43.3 71 1.4 34.4
11:20 1021 30.15 850 25.1 6.3 43.4 70 1.3 34.4
11:25 1021 30.15 850 25.1 6.5 43.6 70 1.4 34.4
11:30 1021 30.15 850 25.1 6.7 44.1 68 1.3 34.3
11:35 1021 30.15 850 25.1 6.9 44.4 70 1.9 35.4
11:40 1021 30.15 850 25.1 7 44.5 67 1.3 34.3
11:45 1021 30.15 850 25.1 6.8 44.3 69 1.6 34.9
11:50 1021 30.15 850 25.1 7 44.5 69 1.6 34.9
11:55 1021 30.15 850 25.1 7.2 44.9 68 1.7 35
12:00 1021 30.15 850 25.1 7.2 45 66 1.4 34.4
12:05 1021 30.15 850 25.1 7.4 45.2 65 1.1 34.1
12:10 1021 30.15 850 25.1 7.4 45.4 64 1.1 34
12:15 1021 30.15 850 25.1 7.5 45.5 62 0.8 33.4
12:20 1021 30.15 850 25.1 7.4 45.4 63 0.8 33.5
12:25 1021 30.15 850 25.1 7.5 45.6 63 0.9 33.7
12:30 1021 30.15 850 25.1 7.2 45 63 0.6 33.1
12:35 1021 30.15 850 25.1 7.2 44.9 63 0.6 33.1
12:40 1021 30.15 850 25.1 7.2 44.9 63 0.6 33.2
12:45 1021 30.15 850 25.1 7.3 45.1 62 0.4 32.7
12:50 1021 30.15 850 25.1 7.1 44.8 63 0.5 33
12:55 1021 30.15 850 25.1 6.8 44.3 65 0.7 33.2
13:00 1021 30.15 850 25.1 6.8 44.2 64 0.6 33
13:05 1021 30.15 850 25.1 6.8 44.2 65 0.6 33
13:10 1021 30.15 850 25.1 6.9 44.4 64 0.5 32.9
13:15 1021 30.15 850 25.1 7 44.7 63 0.5 32.9
13:20 1021 30.15 850 25.1 7.1 44.8 67 1.3 34.4
13:25 1021 30.15 850 25.1 7.1 44.7 66 1.2 34.2
13:30 1021 30.15 850 25.1 7.6 45.6 63 1.1 34
13:35 1021 30.15 850 25.1 7.8 46 60 0.6 33.1
13:40 1021 30.15 850 25.1 8.6 47.4 58 0.8 33.5
13:45 1021 30.15 850 25.1 9 48.2 57 1 33.8
13:50 1021 30.15 850 25.1 8.8 47.9 54 0.2 32.3
13:55 1021 30.15 850 25.1 9 48.3 54 0.3 32.6
14:00 1021 30.15 850 25.1 9.2 48.5 54 0.4 32.7
14:05 1021 30.15 850 25.1 9.2 48.6 54 0.3 32.6
14:10 1021 30.15 850 25.1 9.3 48.7 53 0.2 32.3
14:15 1021 30.15 850 25.1 9.4 48.8 55 0.7 33.3
14:20 1021 30.15 850 25.1 9.1 48.5 53 0 32
14:25 1021 30.15 850 25.1 9.3 48.8 53 0.2 32.3
14:30 1021 30.15 850 25.1 9.6 49.3 52 0.1 32.2
14:35 1021 30.15 850 25.1 9.7 49.4 49 -0.4 31.4
14:40 1021 30.15 850 25.1 10 50.1 49 -0.2 31.6
14:45 1021 30.15 850 25.1 10.4 50.7 48 0 32.1
14:50 1021 30.15 850 25.1 10.4 50.8 49 0.1 32.2
14:55 1021 30.15 850 25.1 10.3 50.5 47 -0.6 30.9
15:00 1021 30.15 850 25.1 10 50 47 -0.7 30.8
15:05 1021 30.15 850 25.1 9.9 49.9 46 -1 30.1
15:10 1021 30.15 850 25.1 9.9 49.8 49 -0.4 31.3
15:15 1021 30.15 850 25.1 9.9 49.8 49 -0.3 31.4
15:20 1021 30.15 850 25.1 9.9 49.8 49 -0.3 31.5
15:25 1021 30.15 850 25.1 9.7 49.5 45 -1.6 29
15:30 1021 30.15 850 25.1 9.6 49.2 48 -0.8 30.6
15:35 1021 30.15 850 25.1 9.5 49.1 49 -0.6 30.9
15:40 1021 30.15 850 25.1 9.4 49 48 -0.9 30.3
15:45 1021 30.15 850 25.1 9.4 49 48 -0.9 30.3
15:50 1021 30.15 850 25.1 9.5 49.1 47 -1.1 30.1
15:55 1021 30.15 850 25.1 9.4 49 48 -1.1 30.1
16:00 1021 30.15 850 25.1 9.4 49 48 -1.1 30
16:05 1021 30.15 850 25.1 9.4 48.9 48 -0.9 30.4
16:10 1021 30.15 851 25.13 9.3 48.8 49 -0.8 30.5
16:15 1021 30.15 851 25.13 9.5 49.1 47 -1.1 30
16:20 1021 30.15 851 25.13 10.2 50.4 45 -1.2 29.8
16:25 1021 30.15 851 25.13 10.7 51.2 44 -1.1 30
16:30 1021 30.15 851 25.13 10.7 51.2 43 -1.4 29.5
16:35 1021 30.15 851 25.13 10.2 50.3 43 -1.7 29
16:40 1021 30.15 851 25.13 10.5 50.8 42 -2 28.4
16:45 1021 30.15 851 25.13 10.7 51.3 41 -2.1 28.3
16:50 1022 30.18 851 25.13 10.7 51.3 40 -2.4 27.7
16:55 1022 30.18 851 25.13 10.5 50.8 43 -1.7 29
17:00 1022 30.18 851 25.13 10.2 50.3 42 -2 28.4
17:05 1022 30.18 851 25.13 9.8 49.6 45 -1.5 29.2
17:10 1022 30.18 851 25.13 9.4 49 47 -1.3 29.6
17:15 1022 30.18 851 25.13 9.3 48.7 47 -1.5 29.4
17:20 1022 30.18 851 25.13 9.1 48.4 48 -1.3 29.7
17:25 1022 30.18 851 25.13 9 48.2 48 -1.4 29.5
17:30 1022 30.18 851 25.13 8.9 48 49 -1.2 29.9
17:35 1022 30.18 851 25.13 8.8 47.9 50 -1 30.2
17:40 1022 30.18 851 25.13 8.7 47.7 50 -1 30.2
17:45 1022 30.18 851 25.13 8.7 47.6 52 -0.7 30.7
17:50 1022 30.18 851 25.13 8.6 47.5 52 -0.6 30.8
17:55 1022 30.18 851 25.13 8.4 47.2 53 -0.5 31
18:00 1022 30.18 851 25.13 8.2 46.7 55 -0.3 31.5
18:05 1022 30.18 851 25.13 7.9 46.1 57 -0.1 31.7
18:10 1022 30.18 851 25.13 7.6 45.7 56 -0.5 31.1
18:15 1022 30.18 851 25.13 7.5 45.5 56 -0.6 30.9
18:20 1022 30.18 851 25.13 7.4 45.3 56 -0.8 30.5
18:25 1022 30.18 851 25.13 7.3 45.1 56 -0.9 30.4
18:30 1022 30.18 851 25.13 7.2 44.9 55 -1.3 29.6
18:35 1022 30.18 852 25.16 7.2 45 54 -1.5 29.3
18:40 1022 30.18 852 25.16 7.3 45.2 53 -1.7 28.9
18:45 1022 30.18 852 25.16 7.3 45.2 51 -2.1 28.2
18:50 1022 30.18 852 25.16 7.3 45.1 51 -2.2 28
18:55 1023 30.21 852 25.16 7.2 45 53 -1.6 29.1
19:00 1023 30.21 852 25.16 6.8 44.2 59 -0.7 30.7
19:05 1023 30.21 852 25.16 6.3 43.3 65 0.2 32.4
19:10 1023 30.21 852 25.16 5.8 42.4 64 -0.6 31
19:15 1023 30.21 852 25.16 5.9 42.5 63 -0.6 31
19:20 1023 30.21 852 25.16 5.9 42.6 64 -0.4 31.3
19:25 1023 30.21 852 25.16 5.7 42.3 63 -0.7 30.8
19:30 1023 30.21 852 25.16 5.8 42.4 63 -0.7 30.8
19:35 1023 30.21 852 25.16 5.8 42.5 62 -0.9 30.4
19:40 1023 30.21 852 25.16 6 42.8 61 -1.1 30.1
19:45 1023 30.21 852 25.16 6.1 43 59 -1.3 29.7
19:50 1023 30.21 852 25.16 6.2 43.2 59 -1.2 29.8
19:55 1023 30.21 852 25.16 6.3 43.3 58 -1.3 29.7
20:00 1023 30.21 852 25.16 6.3 43.3 58 -1.5 29.4
20:05 1023 30.21 852 25.16 6.2 43.2 57 -1.5 29.3
20:10 1023 30.21 852 25.16 6.2 43.2 57 -1.7 29
20:15 1023 30.21 852 25.16 6.2 43.1 57 -1.6 29.1
20:20 1023 30.21 852 25.16 6.1 43.1 57 -1.7 28.9
20:25 1023 30.21 852 25.16 6.2 43.2 56 -1.8 28.7
20:30 1023 30.21 852 25.16 5.9 42.6 61 -1.1 30
20:35 1023 30.21 852 25.16 5.6 42.1 60 -1.6 29.1
20:40 1023 30.21 853 25.19 5.7 42.3 59 -1.7 29
20:45 1023 30.21 853 25.19 5.9 42.5 58 -1.7 28.9
20:50 1023 30.21 853 25.19 5.9 42.6 58 -1.6 29.1
20:55 1023 30.21 853 25.19 6 42.7 58 -1.7 28.9
21:00 1023 30.21 853 25.19 6 42.7 59 -1.5 29.2
21:05 1023 30.21 852 25.16 5.9 42.6 59 -1.4 29.5
21:10 1023 30.21 852 25.16 5.6 42 61 -1.4 29.6
21:15 1023 30.21 852 25.16 5.4 41.8 62 -1.3 29.7
21:20 1023 30.21 852 25.16 5.2 41.3 64 -1.1 29.9
21:25 1023 30.21 852 25.16 4.7 40.4 67 -0.9 30.4
21:30 1023 30.21 852 25.16 4.3 39.8 70 -0.7 30.8
21:35 1023 30.21 852 25.16 4.2 39.6 71 -0.6 30.9
21:40 1023 30.21 852 25.16 4.3 39.8 70 -0.8 30.6
21:45 1023 30.21 852 25.16 4.4 40 71 -0.4 31.3
21:50 1023 30.21 852 25.16 4.4 39.9 71 -0.5 31.2
21:55 1023 30.21 852 25.16 4.2 39.6 72 -0.3 31.4
22:00 1023 30.21 852 25.16 3.9 39 75 -0.2 31.6
22:05 1023 30.21 852 25.16 3.8 38.8 73 -0.7 30.8
22:10 1023 30.21 852 25.16 4 39.1 71 -0.9 30.4
22:15 1023 30.21 852 25.16 3.8 38.9 72 -0.7 30.7
22:20 1023 30.21 852 25.16 3.9 38.9 71 -0.9 30.5
22:25 1023 30.21 852 25.16 3.8 38.9 72 -0.7 30.8
22:30 1023 30.21 852 25.16 3.6 38.5 72 -0.9 30.3
22:35 1023 30.21 852 25.16 3.8 38.9 70 -1.1 29.9
22:40 1023 30.21 852 25.16 3.9 39 70 -1 30.2
22:45 1023 30.21 852 25.16 3.8 38.9 71 -1 30.2
22:50 1023 30.21 852 25.16 3.7 38.7 71 -1 30.1
22:55 1023 30.21 852 25.16 3.6 38.5 71 -1.2 29.8
23:00 1023 30.21 852 25.16 3.7 38.7 71 -1.1 30
23:05 1023 30.21 852 25.16 3.7 38.7 70 -1.3 29.7
23:10 1023 30.21 852 25.16 3.8 38.9 69 -1.3 29.6
23:15 1023 30.21 852 25.16 3.8 38.9 69 -1.4 29.5
23:20 1023 30.21 852 25.16 3.9 39 69 -1.3 29.6
23:25 1023 30.21 852 25.16 3.8 38.8 70 -1.2 29.8
23:30 1023 30.21 852 25.16 3.7 38.7 70 -1.3 29.6
23:35 1023 30.21 852 25.16 3.8 38.9 69 -1.4 29.6
23:40 1023 30.21 852 25.16 3.9 39 69 -1.3 29.6
23:45 1023 30.21 852 25.16 3.9 39 69 -1.3 29.7
23:50 1023 30.21 852 25.16 3.7 38.7 71 -1 30.2
23:55 1023 30.21 852 25.16 3.5 38.3 71 -1.3 29.6
24:00 1023 30.21 852 25.16 3.7 38.6 70 -1.3 29.6